Terminal Aerodrome Forecast
Issued by NWS Charleston, WV

Current Version | Previous Version | Graphics & Text | Print | Product List | Glossary On
Versions: 1 2 3 4 5 6 7 8 9 10 11 12 13 14 15 16 17
000
FTUS41 KRLX 271100
TAFBKW
TAF
KBKW 271121Z 2712/2812 00000KT P6SM SCT120
     FM271500 VRB03KT P6SM BKN100
     FM280400 20004KT P6SM BKN035
     FM281000 VRB03KT 5SM -SHRA BR OVC030=

USA.gov is the U.S. government's official web portal to all federal, state and local government web resources and services.